Terminal Aerodrome Forecast
Issued by NWS Austin/San Antonio, TX

Home | Current Version | Previous Version | Text Only | Print | Product List | Glossary On
Versions: 1 2 3 4 5 6 7 8 9 10 11 12 13 14
439
FTUS44 KEWX 142345
TAFDRT
TAF
KDRT 142345Z 1500/1524 13007KT P6SM BKN250
     FM150100 04003KT P6SM SKC
     FM151600 32011KT P6SM SCT250=

USA.gov is the U.S. government's official web portal to all federal, state and local government web resources and services.